Startpagina
METAR-TAF:

METAR-TAF

Vliegvelden :

Fritzlar, Duitsland

breedte: 51-07N, lengte: 009-17E, hoogte: 172 m

Actueel weer

Dit bericht is 1 uur en het 15 minuten geleden gemaakt, om 15:20 UTC
Wind 8 kt uit het westen
Temperatuur 4°C
Vochtigheid 70%
Druk 1000 hPa
Zicht 10 km of meer
Weinig wolken op 1800 ft
Gebroken wolken op 4000 ft

METAR: ETHF 261520Z 26008KT 9999 FEW018 BKN040 04/M01 Q1000 BLU BLU TEMPO YLO

Tijdstip: 17:35 (16:35 UTC)

Verwachting

Dit bericht is 2 uur en het 15 minuten geleden gemaakt, om 14:20 UTC
Verwachting geldig van 26 om 15 UTC tot 26 om 24 UTC
Wind 10 kt uit het westen
Zicht 10 km of meer
Weinig wolken op 2000 ft
Gebroken wolken op 3500 ft
Tijdelijke
van 26 om 15 UTC tot 26 om 24 UTC
Wind 12 kt uit het westnoordwesten met uitschieters tot 25 kt
Zicht: 2500 m
Gebroken wolken op 500 ft
Gebroken wolken op 1200 ft, Cumulonimbus.
sneeuwbuien, regen

TAF: ETHF 261420Z 2615/2624 28010KT 9999 NSW FEW020 BKN035 TEMPO 2615/2624 30012G25KT 2500 SHSNRA BKN005 BKN012CB

Waarnemingen en weersverwachtingen van meer dan 4000 vliegvelden (METAR en TAF).

De beschikbare stations zijn de gele en rode punten op de kaart.

Ga met uw muis naar het station om de naam te zien.

Klik dan om waarnemingen en weersverwachtingen te zien.

kaart wijzigen: klik op de groene knoppen met een zwart kruis om in te zoomen, op de groene knop met een streepje om uit te zoomen of op de groene pijlen voor aangrenzende kaarten.


METAR-TAF: